Adamsville, Ohio
Current Conditions -  °F | °C
As of 3:35 PM on Tuesday 21 Oct 2014 (Local Time) from KZZV Reporting Station
Overcast Overcast  
Wind Chill: 10°   Ceiling: 1900
Heat Index: 10°   Visibility: 10mi
Dew Point:   Wind: 8mph
Humidity: 86%   Direction: 350°N
Pressure: 29.97"   Gusts: NA
Location:  40.07°N, 81.88°W
Report Text: KZZV 211935Z AUTO 35007KT 10SM SCT014 BKN019 OVC034 10/08 A2997 RMK AO2 RAE19 P0004 T01000078
Loading
Personal Weather Stations






























Interactive Weather Map
Tropical Storm Tracking
New forecast layout! Learn more

10-Day Weather Forecast

Advertisements
Track Severe Weather on mobile